Smiths Falls, Canada
Current Conditions -  °F | °C
As of 2:00 AM on Saturday 25 Oct 2014 (Local Time) from CYOW Reporting Station
Clear Clear  
Wind Chill: 37°   Ceiling: Unl
Heat Index: 43°   Visibility: 15mi
Dew Point: 34°   Wind: 12mph
Humidity: 70%   Direction: 280°W
Pressure: 29.81"   Gusts: NA
Location:  44.9°N, 76.02°W
Report Text: CYOW 250600Z 28010KT 15SM SKC 06/01 A2981 RMK SLP095
Loading
Personal Weather Stations






























Interactive Weather Map
Tropical Storm Tracking
New forecast layout! Learn more

10-Day Weather Forecast

Advertisements
Track Severe Weather on mobile